EGMC/SEN METAR and TAF weather

Enter ICAO airport designator
Station Type Date Time Source
EGMC METAR 2021/07/28 04:50 UTC NOAA

EGMC 280450Z 24011KT 9999 FEW014 17/15 Q1005


Station Type Date Time Source
EGMC Decoded METAR 2021/07/28 04:50 UTC NOAA

Southend-On-Sea , United Kingdom (EGMC) 51-34N 000-42E
Jul 28, 2021 - 12:50 AM EDT / 2021.07.28 0450 UTC
Wind: from the WSW (240 degrees) at 13 MPH (11 KT):0
Visibility: greater than 7 mile(s):0
Sky conditions: mostly clear
Temperature: 62 F (17 C)
Dew Point: 59 F (15 C)
Relative Humidity: 88%
Pressure (altimeter): 29.68 in. Hg (1005 hPa)
ob: EGMC 280450Z 24011KT 9999 FEW014 17/15 Q1005
cycle: 5

Station Type Date Time Source
EGMC TAF 2016/04/18 18:00 UTC NOAA

TAF EGMC 181658Z 1818/1903 28008KT 9999 BKN045

Example: see airport list